Thursday, October 18, 2018, 9:46 AM EDT
Back to Local

KELM, Elmira County Airport

Location: Horseheads, NY, United States Lat: 42.167
Local Time: 9:46 AM EDT (13:46 GMT) Lon: -76.9
Time Zone: US/Eastern Elev: 954 ft

Show me the last for .
Show Decoded

2018-10-18 08:53 METAR KELM 181253Z 32008KT 10SM CLR 03/M06 A3039 RMK AO2 SLP298 T00281056 =
2018-10-18 07:53 METAR KELM 181153Z 00000KT 10SM CLR 02/M04 A3037 RMK AO2 SLP291 60001 70003
                 T00221039 10039 20017 51025 =
2018-10-18 06:53 METAR KELM 181053Z 00000KT 10SM OVC060 02/M04 A3034 RMK AO2 SLP283 T00221039 =
2018-10-18 05:53 METAR KELM 180953Z 31009KT 10SM OVC049 03/M04 A3031 RMK AO2 SNE02 SLP272 P0000
                 T00281039 =
2018-10-18 04:53 METAR KELM 180853Z AUTO 34008G17KT 10SM -SN FEW028 OVC036 03/M02 A3029 RMK AO2
                 SNB50 SLP264 P0001 60001 T00281022 53024 =
2018-10-18 03:53 METAR KELM 180753Z AUTO 30007KT 10SM OVC070 03/M03 A3025 RMK AO2 SLP250
                 T00331028 =
2018-10-18 02:53 METAR KELM 180653Z AUTO 29004KT 10SM OVC070 03/M02 A3024 RMK AO2 SLP245
                 T00331022 =
2018-10-18 01:53 METAR KELM 180553Z AUTO 24006KT 10SM SCT065 SCT085 03/M02 A3022 RMK AO2 SLP238
                 60000 T00281022 10056 20022 53012 =
2018-10-18 00:53 METAR KELM 180453Z AUTO 26005KT 10SM BKN070 03/M02 A3020 RMK AO2 SLP233
                 T00331022 401000006 =
2018-10-17 23:53 METAR KELM 180353Z 26006KT 10SM CLR 03/M03 A3019 RMK AO2 SLP229 T00331028 =
2018-10-17 22:53 METAR KELM 180253Z 27007KT 220V300 10SM FEW050 FEW080 03/M02 A3018 RMK AO2 RAE36
                 SLP226 P0000 60000 T00331017 51031 =
2018-10-17 21:53 METAR KELM 180153Z 33009G21KT 10SM -RA FEW030 BKN050 OVC065 05/M01 A3016 RMK AO2
                 RAB44 SLP218 P0000 T00501006 =
2018-10-17 20:53 METAR KELM 180053Z 30007KT 10SM SCT060 05/M01 A3012 RMK AO2 RAB29E39 SLP204
                 P0000 T00501006 =
2018-10-17 19:53 METAR KELM 172353Z 27009KT 10SM BKN075 05/M01 A3008 RMK AO2 SLP195 60002
                 T00501006 10100 20050 51031 =
2018-10-17 18:53 METAR KELM 172253Z 28010KT 10SM FEW070 06/00 A3006 RMK AO2 RAB09E25 SLP185 P0001
                 T00560000 =
2018-10-17 17:53 METAR KELM 172153Z 27018G23KT 10SM FEW036 BKN070 BKN080 07/01 A3002 RMK AO2 PK
                 WND 29029/2128 RAE2054B17E41 SLP172 P0000 T00670006 =
2018-10-17 16:53 METAR KELM 172053Z 27011G24KT 10SM -RA FEW028 SCT045 BKN075 07/02 A2999 RMK AO2
                 PK WND 27026/2011 RAB43 SLP161 P0000 60001 T00720017 51017 =
2018-10-17 15:53 METAR KELM 171953Z AUTO 30011G18KT 10SM FEW033 BKN060 BKN075 08/03 A2997 RMK AO2
                 PK WND 29030/1930 WSHFT 1930 RAB29E44 SLP155 P0001 T00830028 =
2018-10-17 15:50 METAR KELM 171950Z AUTO 28011G18KT 10SM FEW036 SCT055 BKN075 09/03 A2997 RMK AO2
                 PK WND 29030/1930 WSHFT 1930 RAB29E44 P0001 =
2018-10-17 14:53 METAR KELM 171853Z AUTO 29014G23KT 10SM FEW031 BKN055 OVC100 09/03 A2994 RMK AO2
                 RAB30E41 SLP143 P0000 T00890028 =
2018-10-17 13:53 METAR KELM 171753Z 27012G20KT 10SM SCT030 BKN038 OVC048 09/04 A2992 RMK AO2
                 RAE00B26E48 SLP136 P0000 60000 T00940044 10094 20017 52003 =
2018-10-17 12:53 METAR KELM 171653Z 27014G21KT 10SM -RA BKN034 OVC047 09/04 A2992 RMK AO2 SLP138
                 P0000 T00890039 =
2018-10-17 11:53 METAR KELM 171553Z 25007KT 10SM -RA SCT033 OVC070 09/04 A2991 RMK AO2 RAB03
                 SLP132 P0000 T00890039 =
2018-10-17 10:53 METAR KELM 171453Z 23006KT 10SM BKN030 BKN036 OVC065 08/03 A2991 RMK AO2
                 RAB14E24 SLP132 P0000 60000 T00830033 58002 =
2018-10-17 09:53 METAR KELM 171353Z 25009KT 10SM BKN075 OVC090 08/03 A2992 RMK AO2 SLP137
                 T00830028 =

Support USWX by starting your Amazon purchase here.